sensor_id;sensor_type;location;lat;lon;timestamp;temperature;humidity
9323;DHT22;4700;48.822;9.270;2023-06-26T00:00:59;20.20;1.00
9323;DHT22;4700;48.822;9.270;2023-06-26T00:03:45;20.20;1.00
9323;DHT22;4700;48.822;9.270;2023-06-26T00:06:30;20.20;1.00
9323;DHT22;4700;48.822;9.270;2023-06-26T00:09:20;20.10;1.00
9323;DHT22;4700;48.822;9.270;2023-06-26T00:12:06;20.10;1.00
9323;DHT22;4700;48.822;9.270;2023-06-26T00:14:51;20.00;1.00
9323;DHT22;4700;48.822;9.270;2023-06-26T00:17:37;20.00;1.00
9323;DHT22;4700;48.822;9.270;2023-06-26T00:20:23;20.00;1.00
9323;DHT22;4700;48.822;9.270;2023-06-26T00:23:10;19.90;1.00
9323;DHT22;4700;48.822;9.270;2023-06-26T00:26:00;19.90;1.00
9323;DHT22;4700;48.822;9.270;2023-06-26T00:28:46;19.90;1.00
9323;DHT22;4700;48.822;9.270;2023-06-26T00:31:32;19.90;1.00
9323;DHT22;4700;48.822;9.270;2023-06-26T00:34:19;19.90;1.00
9323;DHT22;4700;48.822;9.270;2023-06-26T00:37:04;19.90;1.00
9323;DHT22;4700;48.822;9.270;2023-06-26T00:39:50;19.90;1.00
9323;DHT22;4700;48.822;9.270;2023-06-26T00:42:40;19.90;1.00
9323;DHT22;4700;48.822;9.270;2023-06-26T00:45:26;19.90;1.00
9323;DHT22;4700;48.822;9.270;2023-06-26T00:48:12;19.80;1.00
9323;DHT22;4700;48.822;9.270;2023-06-26T00:50:58;19.70;1.00
9323;DHT22;4700;48.822;9.270;2023-06-26T00:53:44;19.60;1.00
9323;DHT22;4700;48.822;9.270;2023-06-26T00:56:30;19.60;1.00
9323;DHT22;4700;48.822;9.270;2023-06-26T00:59:18;19.60;1.00
9323;DHT22;4700;48.822;9.270;2023-06-26T01:02:04;19.60;1.00
9323;DHT22;4700;48.822;9.270;2023-06-26T01:04:52;19.50;1.00
9323;DHT22;4700;48.822;9.270;2023-06-26T01:07:38;19.40;1.00
9323;DHT22;4700;48.822;9.270;2023-06-26T01:10:24;19.40;1.00
9323;DHT22;4700;48.822;9.270;2023-06-26T01:13:12;19.30;1.00
9323;DHT22;4700;48.822;9.270;2023-06-26T01:16:01;19.30;1.00
9323;DHT22;4700;48.822;9.270;2023-06-26T01:18:47;19.30;1.00
9323;DHT22;4700;48.822;9.270;2023-06-26T01:21:33;19.20;1.00
9323;DHT22;4700;48.822;9.270;2023-06-26T01:24:20;19.20;1.00
9323;DHT22;4700;48.822;9.270;2023-06-26T01:27:12;19.20;1.00
9323;DHT22;4700;48.822;9.270;2023-06-26T01:30:01;19.20;1.00
9323;DHT22;4700;48.822;9.270;2023-06-26T01:32:48;19.10;1.00
9323;DHT22;4700;48.822;9.270;2023-06-26T01:35:34;19.10;1.00
9323;DHT22;4700;48.822;9.270;2023-06-26T01:38:21;19.00;1.00
9323;DHT22;4700;48.822;9.270;2023-06-26T01:41:08;19.00;1.00
9323;DHT22;4700;48.822;9.270;2023-06-26T01:44:11;18.90;1.00
9323;DHT22;4700;48.822;9.270;2023-06-26T01:47:01;18.90;1.00
9323;DHT22;4700;48.822;9.270;2023-06-26T01:49:49;18.80;1.00
9323;DHT22;4700;48.822;9.270;2023-06-26T01:52:39;18.80;1.00
9323;DHT22;4700;48.822;9.270;2023-06-26T01:55:32;18.70;1.00
9323;DHT22;4700;48.822;9.270;2023-06-26T01:58:23;18.80;1.00
9323;DHT22;4700;48.822;9.270;2023-06-26T02:01:20;18.70;1.00
9323;DHT22;4700;48.822;9.270;2023-06-26T02:04:05;18.80;1.00
9323;DHT22;4700;48.822;9.270;2023-06-26T02:06:51;18.80;1.00
9323;DHT22;4700;48.822;9.270;2023-06-26T02:09:39;18.70;1.00
9323;DHT22;4700;48.822;9.270;2023-06-26T02:12:25;18.70;1.00
9323;DHT22;4700;48.822;9.270;2023-06-26T02:15:10;18.60;1.00
9323;DHT22;4700;48.822;9.270;2023-06-26T02:17:57;18.60;1.00
9323;DHT22;4700;48.822;9.270;2023-06-26T02:20:43;18.60;1.00
9323;DHT22;4700;48.822;9.270;2023-06-26T02:23:28;18.60;1.00
9323;DHT22;4700;48.822;9.270;2023-06-26T02:26:14;18.60;1.00
9323;DHT22;4700;48.822;9.270;2023-06-26T02:29:00;18.60;1.00
9323;DHT22;4700;48.822;9.270;2023-06-26T02:31:47;18.50;1.00
9323;DHT22;4700;48.822;9.270;2023-06-26T02:34:34;18.40;1.00
9323;DHT22;4700;48.822;9.270;2023-06-26T02:37:23;18.40;1.00
9323;DHT22;4700;48.822;9.270;2023-06-26T02:40:09;18.40;1.00
9323;DHT22;4700;48.822;9.270;2023-06-26T02:42:55;18.30;1.00
9323;DHT22;4700;48.822;9.270;2023-06-26T02:45:43;18.30;1.00
9323;DHT22;4700;48.822;9.270;2023-06-26T02:48:29;18.30;1.00
9323;DHT22;4700;48.822;9.270;2023-06-26T02:51:16;18.20;1.00
9323;DHT22;4700;48.822;9.270;2023-06-26T02:54:02;18.10;1.00
9323;DHT22;4700;48.822;9.270;2023-06-26T02:56:48;18.10;1.00
9323;DHT22;4700;48.822;9.270;2023-06-26T02:59:34;18.10;1.00
9323;DHT22;4700;48.822;9.270;2023-06-26T03:02:20;18.10;1.00
9323;DHT22;4700;48.822;9.270;2023-06-26T03:05:06;18.00;1.00
9323;DHT22;4700;48.822;9.270;2023-06-26T03:07:54;18.00;1.00
9323;DHT22;4700;48.822;9.270;2023-06-26T03:10:40;18.00;1.00
9323;DHT22;4700;48.822;9.270;2023-06-26T03:13:25;17.90;1.00
9323;DHT22;4700;48.822;9.270;2023-06-26T03:16:11;17.90;1.00
9323;DHT22;4700;48.822;9.270;2023-06-26T03:18:57;17.90;1.00
9323;DHT22;4700;48.822;9.270;2023-06-26T03:21:43;17.90;1.00
9323;DHT22;4700;48.822;9.270;2023-06-26T03:24:30;17.90;1.00
9323;DHT22;4700;48.822;9.270;2023-06-26T03:27:15;17.80;1.00
9323;DHT22;4700;48.822;9.270;2023-06-26T03:30:01;17.80;1.00
9323;DHT22;4700;48.822;9.270;2023-06-26T03:32:47;17.80;1.00
9323;DHT22;4700;48.822;9.270;2023-06-26T03:35:32;17.80;1.00
9323;DHT22;4700;48.822;9.270;2023-06-26T03:38:19;17.80;1.00
9323;DHT22;4700;48.822;9.270;2023-06-26T03:41:06;17.80;1.00
9323;DHT22;4700;48.822;9.270;2023-06-26T03:43:51;17.80;1.00
9323;DHT22;4700;48.822;9.270;2023-06-26T03:46:37;17.80;1.00
9323;DHT22;4700;48.822;9.270;2023-06-26T03:49:23;17.80;1.00
9323;DHT22;4700;48.822;9.270;2023-06-26T03:52:09;17.90;1.00
9323;DHT22;4700;48.822;9.270;2023-06-26T03:54:54;18.00;1.00
9323;DHT22;4700;48.822;9.270;2023-06-26T03:57:41;18.00;1.00
9323;DHT22;4700;48.822;9.270;2023-06-26T04:00:26;18.10;1.00
9323;DHT22;4700;48.822;9.270;2023-06-26T04:03:12;18.20;1.00
9323;DHT22;4700;48.822;9.270;2023-06-26T04:05:58;18.20;1.00
9323;DHT22;4700;48.822;9.270;2023-06-26T04:08:43;18.20;1.00
9323;DHT22;4700;48.822;9.270;2023-06-26T04:11:29;18.30;1.00
9323;DHT22;4700;48.822;9.270;2023-06-26T04:14:16;18.30;1.00
9323;DHT22;4700;48.822;9.270;2023-06-26T04:17:02;18.40;1.00
9323;DHT22;4700;48.822;9.270;2023-06-26T04:19:48;18.40;1.00
9323;DHT22;4700;48.822;9.270;2023-06-26T04:22:34;18.50;1.00
9323;DHT22;4700;48.822;9.270;2023-06-26T04:25:19;18.60;1.00
9323;DHT22;4700;48.822;9.270;2023-06-26T04:28:05;18.80;1.00
9323;DHT22;4700;48.822;9.270;2023-06-26T04:30:52;18.90;1.00
9323;DHT22;4700;48.822;9.270;2023-06-26T04:33:39;19.00;1.00
9323;DHT22;4700;48.822;9.270;2023-06-26T04:36:24;19.10;1.00
9323;DHT22;4700;48.822;9.270;2023-06-26T04:39:12;19.20;1.00
9323;DHT22;4700;48.822;9.270;2023-06-26T04:41:58;19.30;1.00
9323;DHT22;4700;48.822;9.270;2023-06-26T04:44:44;19.50;1.00
9323;DHT22;4700;48.822;9.270;2023-06-26T04:47:31;19.60;1.00
9323;DHT22;4700;48.822;9.270;2023-06-26T04:50:17;19.70;1.00
9323;DHT22;4700;48.822;9.270;2023-06-26T04:53:03;19.80;1.00
9323;DHT22;4700;48.822;9.270;2023-06-26T04:55:51;20.00;1.00
9323;DHT22;4700;48.822;9.270;2023-06-26T04:58:37;20.10;1.00
9323;DHT22;4700;48.822;9.270;2023-06-26T05:01:25;20.10;1.00
9323;DHT22;4700;48.822;9.270;2023-06-26T05:04:14;20.20;1.00
9323;DHT22;4700;48.822;9.270;2023-06-26T05:07:00;20.30;1.00
9323;DHT22;4700;48.822;9.270;2023-06-26T05:09:46;20.40;1.00
9323;DHT22;4700;48.822;9.270;2023-06-26T05:12:34;20.50;1.00
9323;DHT22;4700;48.822;9.270;2023-06-26T05:15:20;20.60;1.00
9323;DHT22;4700;48.822;9.270;2023-06-26T05:18:06;20.60;1.00
9323;DHT22;4700;48.822;9.270;2023-06-26T05:20:54;20.80;1.00
9323;DHT22;4700;48.822;9.270;2023-06-26T05:23:40;20.80;1.00
9323;DHT22;4700;48.822;9.270;2023-06-26T05:26:28;21.00;1.00
9323;DHT22;4700;48.822;9.270;2023-06-26T05:29:14;21.10;1.00
9323;DHT22;4700;48.822;9.270;2023-06-26T05:32:00;21.40;1.00
9323;DHT22;4700;48.822;9.270;2023-06-26T05:34:47;21.60;1.00
9323;DHT22;4700;48.822;9.270;2023-06-26T05:37:35;21.80;1.00
9323;DHT22;4700;48.822;9.270;2023-06-26T05:40:21;22.00;1.00
9323;DHT22;4700;48.822;9.270;2023-06-26T05:43:08;22.20;1.00
9323;DHT22;4700;48.822;9.270;2023-06-26T05:45:53;22.50;1.00
9323;DHT22;4700;48.822;9.270;2023-06-26T05:48:39;22.70;1.00
9323;DHT22;4700;48.822;9.270;2023-06-26T05:51:26;22.90;1.00
9323;DHT22;4700;48.822;9.270;2023-06-26T05:56:44;23.70;1.00
9323;DHT22;4700;48.822;9.270;2023-06-26T05:59:33;24.70;1.00
9323;DHT22;4700;48.822;9.270;2023-06-26T06:02:28;26.80;1.00
9323;DHT22;4700;48.822;9.270;2023-06-26T06:05:14;28.70;1.00
9323;DHT22;4700;48.822;9.270;2023-06-26T06:08:00;29.50;1.00
9323;DHT22;4700;48.822;9.270;2023-06-26T06:10:48;29.30;1.00
9323;DHT22;4700;48.822;9.270;2023-06-26T06:13:35;28.50;1.00
9323;DHT22;4700;48.822;9.270;2023-06-26T06:16:21;28.70;1.00
9323;DHT22;4700;48.822;9.270;2023-06-26T06:19:08;29.90;1.00
9323;DHT22;4700;48.822;9.270;2023-06-26T06:21:58;32.00;1.00
9323;DHT22;4700;48.822;9.270;2023-06-26T06:24:43;34.20;99.90
9323;DHT22;4700;48.822;9.270;2023-06-26T06:27:29;35.50;99.90
9323;DHT22;4700;48.822;9.270;2023-06-26T06:30:17;36.90;99.90
9323;DHT22;4700;48.822;9.270;2023-06-26T06:33:03;38.00;99.90
9323;DHT22;4700;48.822;9.270;2023-06-26T06:35:49;38.80;99.90
9323;DHT22;4700;48.822;9.270;2023-06-26T06:38:34;39.20;99.90
9323;DHT22;4700;48.822;9.270;2023-06-26T06:41:20;38.70;99.90
9323;DHT22;4700;48.822;9.270;2023-06-26T06:44:06;40.10;99.90
9323;DHT22;4700;48.822;9.270;2023-06-26T06:46:53;41.30;99.90
9323;DHT22;4700;48.822;9.270;2023-06-26T06:49:39;41.40;99.90
9323;DHT22;4700;48.822;9.270;2023-06-26T06:52:25;41.40;99.90
9323;DHT22;4700;48.822;9.270;2023-06-26T06:55:11;41.90;99.90
9323;DHT22;4700;48.822;9.270;2023-06-26T06:57:57;43.10;99.90
9323;DHT22;4700;48.822;9.270;2023-06-26T07:03:33;44.10;99.90
9323;DHT22;4700;48.822;9.270;2023-06-26T07:06:20;45.60;99.90
9323;DHT22;4700;48.822;9.270;2023-06-26T07:09:06;45.50;99.90
9323;DHT22;4700;48.822;9.270;2023-06-26T07:11:53;46.10;99.90
9323;DHT22;4700;48.822;9.270;2023-06-26T07:14:42;46.90;99.90
9323;DHT22;4700;48.822;9.270;2023-06-26T07:17:28;46.00;99.90
9323;DHT22;4700;48.822;9.270;2023-06-26T07:20:15;46.30;99.90
9323;DHT22;4700;48.822;9.270;2023-06-26T07:23:01;46.40;99.90
9323;DHT22;4700;48.822;9.270;2023-06-26T07:25:48;47.30;99.90
9323;DHT22;4700;48.822;9.270;2023-06-26T07:28:34;47.10;99.90
9323;DHT22;4700;48.822;9.270;2023-06-26T07:31:21;46.50;99.90
9323;DHT22;4700;48.822;9.270;2023-06-26T07:34:07;45.80;99.90
9323;DHT22;4700;48.822;9.270;2023-06-26T07:36:56;44.20;99.90
9323;DHT22;4700;48.822;9.270;2023-06-26T07:39:43;44.60;99.90
9323;DHT22;4700;48.822;9.270;2023-06-26T07:42:30;44.10;99.90
9323;DHT22;4700;48.822;9.270;2023-06-26T07:45:19;44.30;99.90
9323;DHT22;4700;48.822;9.270;2023-06-26T07:48:08;44.50;99.90
9323;DHT22;4700;48.822;9.270;2023-06-26T07:50:55;45.30;99.90
9323;DHT22;4700;48.822;9.270;2023-06-26T07:53:44;45.80;99.90
9323;DHT22;4700;48.822;9.270;2023-06-26T07:56:35;45.60;99.90
9323;DHT22;4700;48.822;9.270;2023-06-26T07:59:40;45.20;99.90
9323;DHT22;4700;48.822;9.270;2023-06-26T08:02:33;46.00;99.90
9323;DHT22;4700;48.822;9.270;2023-06-26T08:05:19;47.10;99.90
9323;DHT22;4700;48.822;9.270;2023-06-26T08:08:05;47.00;99.90
9323;DHT22;4700;48.822;9.270;2023-06-26T08:10:53;47.50;99.90
9323;DHT22;4700;48.822;9.270;2023-06-26T08:13:38;47.00;99.90
9323;DHT22;4700;48.822;9.270;2023-06-26T08:16:29;46.90;99.90
9323;DHT22;4700;48.822;9.270;2023-06-26T08:19:17;46.20;99.90
9323;DHT22;4700;48.822;9.270;2023-06-26T08:22:04;47.10;99.90
9323;DHT22;4700;48.822;9.270;2023-06-26T08:24:50;47.50;99.90
9323;DHT22;4700;48.822;9.270;2023-06-26T08:27:37;47.30;99.90
9323;DHT22;4700;48.822;9.270;2023-06-26T08:30:24;47.70;99.90
9323;DHT22;4700;48.822;9.270;2023-06-26T08:33:12;48.60;99.90
9323;DHT22;4700;48.822;9.270;2023-06-26T08:35:58;47.30;99.90
9323;DHT22;4700;48.822;9.270;2023-06-26T08:38:44;47.90;99.90
9323;DHT22;4700;48.822;9.270;2023-06-26T08:41:31;47.30;99.90
9323;DHT22;4700;48.822;9.270;2023-06-26T08:44:18;47.60;99.90
9323;DHT22;4700;48.822;9.270;2023-06-26T08:47:11;48.70;99.90
9323;DHT22;4700;48.822;9.270;2023-06-26T08:50:04;48.60;99.90
9323;DHT22;4700;48.822;9.270;2023-06-26T08:52:55;47.20;99.90
9323;DHT22;4700;48.822;9.270;2023-06-26T08:55:43;46.20;99.90
9323;DHT22;4700;48.822;9.270;2023-06-26T08:58:29;46.00;99.90
9323;DHT22;4700;48.822;9.270;2023-06-26T09:01:17;45.90;99.90
9323;DHT22;4700;48.822;9.270;2023-06-26T09:04:03;47.10;99.90
9323;DHT22;4700;48.822;9.270;2023-06-26T09:06:50;47.60;99.90
9323;DHT22;4700;48.822;9.270;2023-06-26T09:09:36;48.50;99.90
9323;DHT22;4700;48.822;9.270;2023-06-26T09:12:22;47.50;99.90
9323;DHT22;4700;48.822;9.270;2023-06-26T09:15:08;47.30;99.90
9323;DHT22;4700;48.822;9.270;2023-06-26T09:17:56;45.80;99.90
9323;DHT22;4700;48.822;9.270;2023-06-26T09:20:43;45.00;99.90
9323;DHT22;4700;48.822;9.270;2023-06-26T09:23:30;44.60;99.90
9323;DHT22;4700;48.822;9.270;2023-06-26T09:26:16;45.80;99.90
9323;DHT22;4700;48.822;9.270;2023-06-26T09:29:02;44.80;99.90
9323;DHT22;4700;48.822;9.270;2023-06-26T09:31:49;44.70;99.90
9323;DHT22;4700;48.822;9.270;2023-06-26T09:34:41;44.20;99.90
9323;DHT22;4700;48.822;9.270;2023-06-26T09:37:29;44.20;99.90
9323;DHT22;4700;48.822;9.270;2023-06-26T09:40:15;43.50;99.90
9323;DHT22;4700;48.822;9.270;2023-06-26T09:43:03;41.50;99.90
9323;DHT22;4700;48.822;9.270;2023-06-26T09:45:48;39.20;99.90
9323;DHT22;4700;48.822;9.270;2023-06-26T09:48:35;37.00;99.90
9323;DHT22;4700;48.822;9.270;2023-06-26T09:51:24;36.30;99.90
9323;DHT22;4700;48.822;9.270;2023-06-26T09:54:10;37.50;99.90
9323;DHT22;4700;48.822;9.270;2023-06-26T09:56:57;39.10;99.90
9323;DHT22;4700;48.822;9.270;2023-06-26T09:59:52;39.30;99.90
9323;DHT22;4700;48.822;9.270;2023-06-26T10:02:38;39.30;99.90
9323;DHT22;4700;48.822;9.270;2023-06-26T10:05:24;39.10;99.90
9323;DHT22;4700;48.822;9.270;2023-06-26T10:08:11;38.90;99.90
9323;DHT22;4700;48.822;9.270;2023-06-26T10:10:58;38.80;99.90
9323;DHT22;4700;48.822;9.270;2023-06-26T10:13:46;38.60;99.90
9323;DHT22;4700;48.822;9.270;2023-06-26T10:16:37;37.90;99.90
9323;DHT22;4700;48.822;9.270;2023-06-26T10:19:26;37.80;99.90
9323;DHT22;4700;48.822;9.270;2023-06-26T10:22:15;37.90;99.90
9323;DHT22;4700;48.822;9.270;2023-06-26T10:25:06;37.40;99.90
9323;DHT22;4700;48.822;9.270;2023-06-26T10:27:55;36.60;99.90
9323;DHT22;4700;48.822;9.270;2023-06-26T10:30:42;36.20;99.90
9323;DHT22;4700;48.822;9.270;2023-06-26T10:33:29;36.10;99.90
9323;DHT22;4700;48.822;9.270;2023-06-26T10:36:16;35.90;99.90
9323;DHT22;4700;48.822;9.270;2023-06-26T10:39:06;35.60;99.90
9323;DHT22;4700;48.822;9.270;2023-06-26T10:42:08;35.20;99.90
9323;DHT22;4700;48.822;9.270;2023-06-26T10:44:58;34.30;99.90
9323;DHT22;4700;48.822;9.270;2023-06-26T10:47:54;33.70;99.90
9323;DHT22;4700;48.822;9.270;2023-06-26T10:50:40;32.80;99.90
9323;DHT22;4700;48.822;9.270;2023-06-26T10:53:26;32.20;99.90
9323;DHT22;4700;48.822;9.270;2023-06-26T10:56:17;32.20;99.90
9323;DHT22;4700;48.822;9.270;2023-06-26T10:59:14;31.90;99.90
9323;DHT22;4700;48.822;9.270;2023-06-26T11:02:01;31.70;99.90
9323;DHT22;4700;48.822;9.270;2023-06-26T11:04:50;31.90;99.90
9323;DHT22;4700;48.822;9.270;2023-06-26T11:08:02;31.90;99.90
9323;DHT22;4700;48.822;9.270;2023-06-26T11:10:53;32.30;99.90
9323;DHT22;4700;48.822;9.270;2023-06-26T11:13:40;32.60;99.90
9323;DHT22;4700;48.822;9.270;2023-06-26T11:16:27;32.60;99.90
9323;DHT22;4700;48.822;9.270;2023-06-26T11:19:14;32.60;99.90
9323;DHT22;4700;48.822;9.270;2023-06-26T11:22:02;32.80;99.90
9323;DHT22;4700;48.822;9.270;2023-06-26T11:24:49;33.00;99.90
9323;DHT22;4700;48.822;9.270;2023-06-26T11:27:38;33.30;99.90
9323;DHT22;4700;48.822;9.270;2023-06-26T11:30:25;33.40;99.90
9323;DHT22;4700;48.822;9.270;2023-06-26T11:33:12;33.40;99.90
9323;DHT22;4700;48.822;9.270;2023-06-26T11:36:08;33.20;99.90
9323;DHT22;4700;48.822;9.270;2023-06-26T11:38:54;33.00;99.90
9323;DHT22;4700;48.822;9.270;2023-06-26T11:41:40;33.10;99.90
9323;DHT22;4700;48.822;9.270;2023-06-26T11:44:30;33.20;99.90
9323;DHT22;4700;48.822;9.270;2023-06-26T11:47:16;33.10;99.90
9323;DHT22;4700;48.822;9.270;2023-06-26T11:50:04;33.10;99.90
9323;DHT22;4700;48.822;9.270;2023-06-26T11:52:54;33.10;99.90
9323;DHT22;4700;48.822;9.270;2023-06-26T11:55:43;32.80;99.90
9323;DHT22;4700;48.822;9.270;2023-06-26T11:58:29;32.60;99.90
9323;DHT22;4700;48.822;9.270;2023-06-26T12:01:16;32.20;99.90
9323;DHT22;4700;48.822;9.270;2023-06-26T12:04:05;31.70;99.90
9323;DHT22;4700;48.822;9.270;2023-06-26T12:06:53;31.50;99.90
9323;DHT22;4700;48.822;9.270;2023-06-26T12:09:44;31.40;99.90
9323;DHT22;4700;48.822;9.270;2023-06-26T12:12:31;31.40;99.90
9323;DHT22;4700;48.822;9.270;2023-06-26T12:15:17;31.50;99.90
9323;DHT22;4700;48.822;9.270;2023-06-26T12:18:08;31.70;99.90
9323;DHT22;4700;48.822;9.270;2023-06-26T12:20:57;31.90;99.90
9323;DHT22;4700;48.822;9.270;2023-06-26T12:23:45;32.00;99.90
9323;DHT22;4700;48.822;9.270;2023-06-26T12:26:31;31.70;99.90
9323;DHT22;4700;48.822;9.270;2023-06-26T12:29:21;31.50;99.90
9323;DHT22;4700;48.822;9.270;2023-06-26T12:32:10;31.20;99.90
9323;DHT22;4700;48.822;9.270;2023-06-26T12:34:57;31.40;99.90
9323;DHT22;4700;48.822;9.270;2023-06-26T12:37:44;31.50;99.90
9323;DHT22;4700;48.822;9.270;2023-06-26T12:40:33;31.30;99.90
9323;DHT22;4700;48.822;9.270;2023-06-26T12:43:23;31.50;99.90
9323;DHT22;4700;48.822;9.270;2023-06-26T12:46:09;31.70;99.90
9323;DHT22;4700;48.822;9.270;2023-06-26T12:49:00;31.60;99.90
9323;DHT22;4700;48.822;9.270;2023-06-26T12:51:46;31.50;99.90
9323;DHT22;4700;48.822;9.270;2023-06-26T12:54:33;31.70;99.90
9323;DHT22;4700;48.822;9.270;2023-06-26T12:57:21;31.70;99.90
9323;DHT22;4700;48.822;9.270;2023-06-26T13:00:09;31.60;99.90
9323;DHT22;4700;48.822;9.270;2023-06-26T13:02:56;31.20;99.90
9323;DHT22;4700;48.822;9.270;2023-06-26T13:05:42;30.90;99.90
9323;DHT22;4700;48.822;9.270;2023-06-26T13:08:28;30.90;99.90
9323;DHT22;4700;48.822;9.270;2023-06-26T13:11:14;30.90;99.90
9323;DHT22;4700;48.822;9.270;2023-06-26T13:14:02;30.80;99.90
9323;DHT22;4700;48.822;9.270;2023-06-26T13:16:48;30.50;99.90
9323;DHT22;4700;48.822;9.270;2023-06-26T13:19:34;30.20;99.90
9323;DHT22;4700;48.822;9.270;2023-06-26T13:22:20;30.30;99.90
9323;DHT22;4700;48.822;9.270;2023-06-26T13:25:06;30.40;99.90
9323;DHT22;4700;48.822;9.270;2023-06-26T13:27:51;30.20;99.90
9323;DHT22;4700;48.822;9.270;2023-06-26T13:30:38;30.10;99.90
9323;DHT22;4700;48.822;9.270;2023-06-26T13:33:24;30.40;99.90
9323;DHT22;4700;48.822;9.270;2023-06-26T13:36:10;30.50;99.90
9323;DHT22;4700;48.822;9.270;2023-06-26T13:38:58;30.60;99.90
9323;DHT22;4700;48.822;9.270;2023-06-26T13:41:46;30.70;99.90
9323;DHT22;4700;48.822;9.270;2023-06-26T13:44:32;30.60;99.90
9323;DHT22;4700;48.822;9.270;2023-06-26T13:47:18;30.20;99.90
9323;DHT22;4700;48.822;9.270;2023-06-26T13:50:06;30.30;99.90
9323;DHT22;4700;48.822;9.270;2023-06-26T13:52:51;30.50;99.90
9323;DHT22;4700;48.822;9.270;2023-06-26T13:55:37;30.50;99.90
9323;DHT22;4700;48.822;9.270;2023-06-26T13:58:10;30.50;99.90
9323;DHT22;4700;48.822;9.270;2023-06-26T14:00:57;30.60;99.90
9323;DHT22;4700;48.822;9.270;2023-06-26T14:03:46;30.70;99.90
9323;DHT22;4700;48.822;9.270;2023-06-26T14:06:32;31.00;99.90
9323;DHT22;4700;48.822;9.270;2023-06-26T14:09:18;31.10;99.90
9323;DHT22;4700;48.822;9.270;2023-06-26T14:12:05;31.20;99.90
9323;DHT22;4700;48.822;9.270;2023-06-26T14:14:54;31.00;99.90
9323;DHT22;4700;48.822;9.270;2023-06-26T14:17:40;31.00;99.90
9323;DHT22;4700;48.822;9.270;2023-06-26T14:20:27;30.90;99.90
9323;DHT22;4700;48.822;9.270;2023-06-26T14:23:13;30.50;99.90
9323;DHT22;4700;48.822;9.270;2023-06-26T14:25:59;30.50;99.90
9323;DHT22;4700;48.822;9.270;2023-06-26T14:28:45;30.40;99.90
9323;DHT22;4700;48.822;9.270;2023-06-26T14:31:31;30.50;99.90
9323;DHT22;4700;48.822;9.270;2023-06-26T14:34:16;30.60;99.90
9323;DHT22;4700;48.822;9.270;2023-06-26T14:37:06;30.70;99.90
9323;DHT22;4700;48.822;9.270;2023-06-26T14:39:52;30.50;99.90
9323;DHT22;4700;48.822;9.270;2023-06-26T14:42:37;30.30;99.90
9323;DHT22;4700;48.822;9.270;2023-06-26T14:45:23;30.30;99.90
9323;DHT22;4700;48.822;9.270;2023-06-26T14:48:09;30.20;99.90
9323;DHT22;4700;48.822;9.270;2023-06-26T14:50:54;30.20;99.90
9323;DHT22;4700;48.822;9.270;2023-06-26T14:53:41;30.20;99.90
9323;DHT22;4700;48.822;9.270;2023-06-26T14:56:27;30.10;99.90
9323;DHT22;4700;48.822;9.270;2023-06-26T14:59:13;30.00;99.90
9323;DHT22;4700;48.822;9.270;2023-06-26T15:01:59;30.10;99.90
9323;DHT22;4700;48.822;9.270;2023-06-26T15:04:45;30.00;99.90
9323;DHT22;4700;48.822;9.270;2023-06-26T15:07:31;29.90;99.90
9323;DHT22;4700;48.822;9.270;2023-06-26T15:10:19;29.90;99.90
9323;DHT22;4700;48.822;9.270;2023-06-26T15:13:05;29.90;99.90
9323;DHT22;4700;48.822;9.270;2023-06-26T15:15:51;29.90;99.90
9323;DHT22;4700;48.822;9.270;2023-06-26T15:18:37;29.60;99.90
9323;DHT22;4700;48.822;9.270;2023-06-26T15:21:23;29.50;99.90
9323;DHT22;4700;48.822;9.270;2023-06-26T15:24:09;29.10;99.90
9323;DHT22;4700;48.822;9.270;2023-06-26T15:26:56;29.40;99.90
9323;DHT22;4700;48.822;9.270;2023-06-26T15:29:42;29.40;99.90
9323;DHT22;4700;48.822;9.270;2023-06-26T15:32:28;29.40;99.90
9323;DHT22;4700;48.822;9.270;2023-06-26T15:35:13;29.30;99.90
9323;DHT22;4700;48.822;9.270;2023-06-26T15:37:59;29.20;99.90
9323;DHT22;4700;48.822;9.270;2023-06-26T15:40:44;29.00;99.90
9323;DHT22;4700;48.822;9.270;2023-06-26T15:43:32;29.00;99.90
9323;DHT22;4700;48.822;9.270;2023-06-26T15:46:18;29.00;99.90
9323;DHT22;4700;48.822;9.270;2023-06-26T15:49:04;29.00;99.90
9323;DHT22;4700;48.822;9.270;2023-06-26T15:51:50;29.10;99.90
9323;DHT22;4700;48.822;9.270;2023-06-26T15:54:38;29.20;99.90
9323;DHT22;4700;48.822;9.270;2023-06-26T15:57:24;29.20;99.90
9323;DHT22;4700;48.822;9.270;2023-06-26T16:00:13;28.90;99.90
9323;DHT22;4700;48.822;9.270;2023-06-26T16:03:00;28.60;99.90
9323;DHT22;4700;48.822;9.270;2023-06-26T16:05:46;28.50;99.90
9323;DHT22;4700;48.822;9.270;2023-06-26T16:08:32;28.60;99.90
9323;DHT22;4700;48.822;9.270;2023-06-26T16:11:18;28.60;99.90
9323;DHT22;4700;48.822;9.270;2023-06-26T16:14:03;28.40;99.90
9323;DHT22;4700;48.822;9.270;2023-06-26T16:16:50;28.40;99.90
9323;DHT22;4700;48.822;9.270;2023-06-26T16:19:36;28.40;99.90
9323;DHT22;4700;48.822;9.270;2023-06-26T16:22:21;28.30;99.90
9323;DHT22;4700;48.822;9.270;2023-06-26T16:25:08;28.50;99.90
9323;DHT22;4700;48.822;9.270;2023-06-26T16:27:56;28.50;99.90
9323;DHT22;4700;48.822;9.270;2023-06-26T16:30:42;28.20;99.90
9323;DHT22;4700;48.822;9.270;2023-06-26T16:33:29;28.10;99.90
9323;DHT22;4700;48.822;9.270;2023-06-26T16:36:15;28.00;99.90
9323;DHT22;4700;48.822;9.270;2023-06-26T16:39:00;27.90;99.90
9323;DHT22;4700;48.822;9.270;2023-06-26T16:41:47;28.10;99.90
9323;DHT22;4700;48.822;9.270;2023-06-26T16:44:38;27.90;99.90
9323;DHT22;4700;48.822;9.270;2023-06-26T16:47:24;27.70;99.90
9323;DHT22;4700;48.822;9.270;2023-06-26T16:50:13;27.70;99.90
9323;DHT22;4700;48.822;9.270;2023-06-26T16:52:58;27.80;99.90
9323;DHT22;4700;48.822;9.270;2023-06-26T16:55:46;27.90;99.90
9323;DHT22;4700;48.822;9.270;2023-06-26T16:58:32;27.80;99.90
9323;DHT22;4700;48.822;9.270;2023-06-26T17:01:18;27.60;99.90
9323;DHT22;4700;48.822;9.270;2023-06-26T17:04:03;27.50;99.90
9323;DHT22;4700;48.822;9.270;2023-06-26T17:06:51;27.40;99.90
9323;DHT22;4700;48.822;9.270;2023-06-26T17:09:36;27.50;99.90
9323;DHT22;4700;48.822;9.270;2023-06-26T17:12:22;27.50;99.90
9323;DHT22;4700;48.822;9.270;2023-06-26T17:15:10;27.40;99.90
9323;DHT22;4700;48.822;9.270;2023-06-26T17:17:56;27.40;99.90
9323;DHT22;4700;48.822;9.270;2023-06-26T17:20:44;27.30;99.90
9323;DHT22;4700;48.822;9.270;2023-06-26T17:23:31;27.10;99.90
9323;DHT22;4700;48.822;9.270;2023-06-26T17:26:16;26.90;99.90
9323;DHT22;4700;48.822;9.270;2023-06-26T17:29:04;26.80;99.90
9323;DHT22;4700;48.822;9.270;2023-06-26T17:31:50;26.80;99.90
9323;DHT22;4700;48.822;9.270;2023-06-26T17:34:36;26.70;99.90
9323;DHT22;4700;48.822;9.270;2023-06-26T17:37:22;26.60;99.90
9323;DHT22;4700;48.822;9.270;2023-06-26T17:40:10;26.50;99.90
9323;DHT22;4700;48.822;9.270;2023-06-26T17:42:56;26.50;99.90
9323;DHT22;4700;48.822;9.270;2023-06-26T17:45:42;26.40;99.90
9323;DHT22;4700;48.822;9.270;2023-06-26T17:48:28;26.40;99.90
9323;DHT22;4700;48.822;9.270;2023-06-26T17:51:14;26.40;99.90
9323;DHT22;4700;48.822;9.270;2023-06-26T17:53:59;26.40;99.90
9323;DHT22;4700;48.822;9.270;2023-06-26T17:56:46;26.30;99.90
9323;DHT22;4700;48.822;9.270;2023-06-26T17:59:32;26.10;99.90
9323;DHT22;4700;48.822;9.270;2023-06-26T18:02:21;26.00;99.90
9323;DHT22;4700;48.822;9.270;2023-06-26T18:05:07;25.90;99.90
9323;DHT22;4700;48.822;9.270;2023-06-26T18:07:53;25.90;99.90
9323;DHT22;4700;48.822;9.270;2023-06-26T18:10:39;25.80;99.90
9323;DHT22;4700;48.822;9.270;2023-06-26T18:13:28;25.80;99.90
9323;DHT22;4700;48.822;9.270;2023-06-26T18:16:15;25.60;99.90
9323;DHT22;4700;48.822;9.270;2023-06-26T18:19:01;25.60;99.90
9323;DHT22;4700;48.822;9.270;2023-06-26T18:21:47;25.40;99.90